sensor_id;sensor_type;location;lat;lon;timestamp;P1;P2;P0
64138;PMS5003;50435;43.700;-79.318;2023-12-14T00:01:41;1;0;
64138;PMS5003;50435;43.700;-79.318;2023-12-14T00:04:08;1;0;
64138;PMS5003;50435;43.700;-79.318;2023-12-14T00:06:36;1;1;
64138;PMS5003;50435;43.700;-79.318;2023-12-14T00:09:03;1;1;
64138;PMS5003;50435;43.700;-79.318;2023-12-14T00:11:30;0;0;
64138;PMS5003;50435;43.700;-79.318;2023-12-14T00:13:58;3;1;
64138;PMS5003;50435;43.700;-79.318;2023-12-14T00:16:25;0;0;
64138;PMS5003;50435;43.700;-79.318;2023-12-14T00:18:52;0;0;
64138;PMS5003;50435;43.700;-79.318;2023-12-14T00:21:20;1;1;
64138;PMS5003;50435;43.700;-79.318;2023-12-14T00:23:47;0;0;
64138;PMS5003;50435;43.700;-79.318;2023-12-14T00:26:14;0;0;
64138;PMS5003;50435;43.700;-79.318;2023-12-14T00:28:42;0;0;
64138;PMS5003;50435;43.700;-79.318;2023-12-14T00:31:09;1;1;
64138;PMS5003;50435;43.700;-79.318;2023-12-14T00:33:36;1;0;
64138;PMS5003;50435;43.700;-79.318;2023-12-14T00:36:04;0;0;
64138;PMS5003;50435;43.700;-79.318;2023-12-14T00:38:32;0;0;
64138;PMS5003;50435;43.700;-79.318;2023-12-14T00:40:59;2;0;
64138;PMS5003;50435;43.700;-79.318;2023-12-14T00:43:27;0;0;
64138;PMS5003;50435;43.700;-79.318;2023-12-14T00:45:54;0;0;
64138;PMS5003;50435;43.700;-79.318;2023-12-14T00:48:21;1;1;
64138;PMS5003;50435;43.700;-79.318;2023-12-14T00:50:49;1;1;
64138;PMS5003;50435;43.700;-79.318;2023-12-14T00:53:16;1;1;
64138;PMS5003;50435;43.700;-79.318;2023-12-14T00:55:43;1;1;
64138;PMS5003;50435;43.700;-79.318;2023-12-14T00:58:11;1;0;
64138;PMS5003;50435;43.700;-79.318;2023-12-14T01:00:38;0;0;
64138;PMS5003;50435;43.700;-79.318;2023-12-14T01:03:05;0;0;
64138;PMS5003;50435;43.700;-79.318;2023-12-14T01:05:33;1;1;
64138;PMS5003;50435;43.700;-79.318;2023-12-14T01:08:00;0;0;
64138;PMS5003;50435;43.700;-79.318;2023-12-14T01:10:27;0;0;
64138;PMS5003;50435;43.700;-79.318;2023-12-14T01:12:55;1;1;
64138;PMS5003;50435;43.700;-79.318;2023-12-14T01:15:22;2;1;
64138;PMS5003;50435;43.700;-79.318;2023-12-14T01:17:49;0;0;
64138;PMS5003;50435;43.700;-79.318;2023-12-14T01:20:17;1;1;
64138;PMS5003;50435;43.700;-79.318;2023-12-14T01:22:44;0;0;
64138;PMS5003;50435;43.700;-79.318;2023-12-14T01:25:11;1;1;
64138;PMS5003;50435;43.700;-79.318;2023-12-14T01:27:39;0;0;
64138;PMS5003;50435;43.700;-79.318;2023-12-14T01:30:06;1;0;
64138;PMS5003;50435;43.700;-79.318;2023-12-14T01:32:34;0;0;
64138;PMS5003;50435;43.700;-79.318;2023-12-14T01:35:03;0;0;
64138;PMS5003;50435;43.700;-79.318;2023-12-14T01:37:31;0;0;
64138;PMS5003;50435;43.700;-79.318;2023-12-14T01:39:58;0;0;
64138;PMS5003;50435;43.700;-79.318;2023-12-14T01:42:25;1;1;
64138;PMS5003;50435;43.700;-79.318;2023-12-14T01:44:53;0;0;
64138;PMS5003;50435;43.700;-79.318;2023-12-14T01:47:21;2;1;
64138;PMS5003;50435;43.700;-79.318;2023-12-14T01:49:48;1;1;
64138;PMS5003;50435;43.700;-79.318;2023-12-14T01:52:15;0;0;
64138;PMS5003;50435;43.700;-79.318;2023-12-14T01:54:43;1;1;
64138;PMS5003;50435;43.700;-79.318;2023-12-14T01:57:10;0;0;
64138;PMS5003;50435;43.700;-79.318;2023-12-14T01:59:37;0;0;
64138;PMS5003;50435;43.700;-79.318;2023-12-14T02:02:05;1;1;
64138;PMS5003;50435;43.700;-79.318;2023-12-14T02:04:32;0;0;
64138;PMS5003;50435;43.700;-79.318;2023-12-14T02:06:59;0;0;
64138;PMS5003;50435;43.700;-79.318;2023-12-14T02:09:27;3;1;
64138;PMS5003;50435;43.700;-79.318;2023-12-14T02:11:54;2;2;
64138;PMS5003;50435;43.700;-79.318;2023-12-14T02:14:22;1;1;
64138;PMS5003;50435;43.700;-79.318;2023-12-14T02:16:49;3;1;
64138;PMS5003;50435;43.700;-79.318;2023-12-14T02:19:16;1;1;
64138;PMS5003;50435;43.700;-79.318;2023-12-14T02:21:44;0;0;
64138;PMS5003;50435;43.700;-79.318;2023-12-14T02:24:12;2;2;
64138;PMS5003;50435;43.700;-79.318;2023-12-14T02:26:39;0;0;
64138;PMS5003;50435;43.700;-79.318;2023-12-14T02:29:06;1;1;
64138;PMS5003;50435;43.700;-79.318;2023-12-14T02:31:34;3;2;
64138;PMS5003;50435;43.700;-79.318;2023-12-14T02:34:01;1;1;
64138;PMS5003;50435;43.700;-79.318;2023-12-14T02:36:28;2;2;
64138;PMS5003;50435;43.700;-79.318;2023-12-14T02:38:56;1;1;
64138;PMS5003;50435;43.700;-79.318;2023-12-14T02:41:23;1;1;
64138;PMS5003;50435;43.700;-79.318;2023-12-14T02:43:51;2;1;
64138;PMS5003;50435;43.700;-79.318;2023-12-14T02:46:18;1;1;
64138;PMS5003;50435;43.700;-79.318;2023-12-14T02:48:46;1;0;
64138;PMS5003;50435;43.700;-79.318;2023-12-14T02:51:14;1;1;
64138;PMS5003;50435;43.700;-79.318;2023-12-14T02:53:42;1;1;
64138;PMS5003;50435;43.700;-79.318;2023-12-14T02:56:09;1;1;
64138;PMS5003;50435;43.700;-79.318;2023-12-14T02:58:37;1;1;
64138;PMS5003;50435;43.700;-79.318;2023-12-14T03:01:05;1;1;
64138;PMS5003;50435;43.700;-79.318;2023-12-14T03:03:33;1;1;
64138;PMS5003;50435;43.700;-79.318;2023-12-14T03:06:00;2;2;
64138;PMS5003;50435;43.700;-79.318;2023-12-14T03:08:28;0;0;
64138;PMS5003;50435;43.700;-79.318;2023-12-14T03:10:55;0;0;
64138;PMS5003;50435;43.700;-79.318;2023-12-14T03:13:22;2;2;
64138;PMS5003;50435;43.700;-79.318;2023-12-14T03:15:50;2;1;
64138;PMS5003;50435;43.700;-79.318;2023-12-14T03:18:17;1;1;
64138;PMS5003;50435;43.700;-79.318;2023-12-14T03:20:44;1;1;
64138;PMS5003;50435;43.700;-79.318;2023-12-14T03:23:12;3;2;
64138;PMS5003;50435;43.700;-79.318;2023-12-14T03:25:39;2;2;
64138;PMS5003;50435;43.700;-79.318;2023-12-14T03:28:07;2;2;
64138;PMS5003;50435;43.700;-79.318;2023-12-14T03:30:35;2;2;
64138;PMS5003;50435;43.700;-79.318;2023-12-14T03:33:02;2;2;
64138;PMS5003;50435;43.700;-79.318;2023-12-14T03:35:29;1;1;
64138;PMS5003;50435;43.700;-79.318;2023-12-14T03:37:57;2;2;
64138;PMS5003;50435;43.700;-79.318;2023-12-14T03:40:24;2;2;
64138;PMS5003;50435;43.700;-79.318;2023-12-14T03:42:52;3;3;
64138;PMS5003;50435;43.700;-79.318;2023-12-14T03:45:19;1;1;
64138;PMS5003;50435;43.700;-79.318;2023-12-14T03:47:46;3;3;
64138;PMS5003;50435;43.700;-79.318;2023-12-14T03:50:14;4;2;
64138;PMS5003;50435;43.700;-79.318;2023-12-14T03:52:41;2;2;
64138;PMS5003;50435;43.700;-79.318;2023-12-14T03:55:09;2;2;
64138;PMS5003;50435;43.700;-79.318;2023-12-14T03:57:36;2;2;
64138;PMS5003;50435;43.700;-79.318;2023-12-14T04:00:05;4;3;
64138;PMS5003;50435;43.700;-79.318;2023-12-14T04:02:34;2;2;
64138;PMS5003;50435;43.700;-79.318;2023-12-14T04:05:01;1;1;
64138;PMS5003;50435;43.700;-79.318;2023-12-14T04:07:29;3;3;
64138;PMS5003;50435;43.700;-79.318;2023-12-14T04:09:56;3;3;
64138;PMS5003;50435;43.700;-79.318;2023-12-14T04:12:24;3;3;
64138;PMS5003;50435;43.700;-79.318;2023-12-14T04:14:51;3;3;
64138;PMS5003;50435;43.700;-79.318;2023-12-14T04:17:18;7;6;
64138;PMS5003;50435;43.700;-79.318;2023-12-14T04:19:46;3;3;
64138;PMS5003;50435;43.700;-79.318;2023-12-14T04:22:13;2;2;
64138;PMS5003;50435;43.700;-79.318;2023-12-14T04:24:41;2;2;
64138;PMS5003;50435;43.700;-79.318;2023-12-14T04:27:08;2;2;
64138;PMS5003;50435;43.700;-79.318;2023-12-14T04:29:35;3;2;
64138;PMS5003;50435;43.700;-79.318;2023-12-14T04:32:04;3;2;
64138;PMS5003;50435;43.700;-79.318;2023-12-14T04:34:32;3;3;
64138;PMS5003;50435;43.700;-79.318;2023-12-14T04:36:59;2;2;
64138;PMS5003;50435;43.700;-79.318;2023-12-14T04:39:27;4;4;
64138;PMS5003;50435;43.700;-79.318;2023-12-14T04:41:54;2;2;
64138;PMS5003;50435;43.700;-79.318;2023-12-14T04:44:22;4;3;
64138;PMS5003;50435;43.700;-79.318;2023-12-14T04:46:49;2;2;
64138;PMS5003;50435;43.700;-79.318;2023-12-14T04:49:16;1;1;
64138;PMS5003;50435;43.700;-79.318;2023-12-14T04:51:45;3;3;
64138;PMS5003;50435;43.700;-79.318;2023-12-14T04:54:12;4;4;
64138;PMS5003;50435;43.700;-79.318;2023-12-14T04:56:39;4;2;
64138;PMS5003;50435;43.700;-79.318;2023-12-14T04:59:07;1;1;
64138;PMS5003;50435;43.700;-79.318;2023-12-14T05:01:34;4;2;
64138;PMS5003;50435;43.700;-79.318;2023-12-14T05:04:02;3;3;
64138;PMS5003;50435;43.700;-79.318;2023-12-14T05:06:29;3;3;
64138;PMS5003;50435;43.700;-79.318;2023-12-14T05:08:56;4;4;
64138;PMS5003;50435;43.700;-79.318;2023-12-14T05:11:23;2;2;
64138;PMS5003;50435;43.700;-79.318;2023-12-14T05:13:51;2;2;
64138;PMS5003;50435;43.700;-79.318;2023-12-14T05:16:18;3;3;
64138;PMS5003;50435;43.700;-79.318;2023-12-14T05:18:46;2;2;
64138;PMS5003;50435;43.700;-79.318;2023-12-14T05:21:16;2;2;
64138;PMS5003;50435;43.700;-79.318;2023-12-14T05:23:44;2;2;
64138;PMS5003;50435;43.700;-79.318;2023-12-14T05:26:12;1;1;
64138;PMS5003;50435;43.700;-79.318;2023-12-14T05:28:40;2;2;
64138;PMS5003;50435;43.700;-79.318;2023-12-14T05:31:07;3;2;
64138;PMS5003;50435;43.700;-79.318;2023-12-14T05:33:36;2;2;
64138;PMS5003;50435;43.700;-79.318;2023-12-14T05:36:03;4;2;
64138;PMS5003;50435;43.700;-79.318;2023-12-14T05:38:31;2;2;
64138;PMS5003;50435;43.700;-79.318;2023-12-14T05:40:59;2;2;
64138;PMS5003;50435;43.700;-79.318;2023-12-14T05:43:26;8;3;
64138;PMS5003;50435;43.700;-79.318;2023-12-14T05:45:54;3;2;
64138;PMS5003;50435;43.700;-79.318;2023-12-14T05:48:21;2;2;
64138;PMS5003;50435;43.700;-79.318;2023-12-14T05:50:48;2;2;
64138;PMS5003;50435;43.700;-79.318;2023-12-14T05:53:17;1;1;
64138;PMS5003;50435;43.700;-79.318;2023-12-14T05:55:44;3;2;
64138;PMS5003;50435;43.700;-79.318;2023-12-14T05:58:12;4;4;
64138;PMS5003;50435;43.700;-79.318;2023-12-14T06:00:40;4;3;
64138;PMS5003;50435;43.700;-79.318;2023-12-14T06:03:07;3;3;
64138;PMS5003;50435;43.700;-79.318;2023-12-14T06:05:35;4;3;
64138;PMS5003;50435;43.700;-79.318;2023-12-14T06:08:02;1;1;
64138;PMS5003;50435;43.700;-79.318;2023-12-14T06:10:29;6;3;
64138;PMS5003;50435;43.700;-79.318;2023-12-14T06:12:57;2;2;
64138;PMS5003;50435;43.700;-79.318;2023-12-14T06:15:24;4;3;
64138;PMS5003;50435;43.700;-79.318;2023-12-14T06:17:52;4;3;
64138;PMS5003;50435;43.700;-79.318;2023-12-14T06:20:19;2;2;
64138;PMS5003;50435;43.700;-79.318;2023-12-14T06:22:46;2;2;
64138;PMS5003;50435;43.700;-79.318;2023-12-14T06:25:14;2;2;
64138;PMS5003;50435;43.700;-79.318;2023-12-14T06:27:41;2;2;
64138;PMS5003;50435;43.700;-79.318;2023-12-14T06:30:09;3;3;
64138;PMS5003;50435;43.700;-79.318;2023-12-14T06:32:37;2;2;
64138;PMS5003;50435;43.700;-79.318;2023-12-14T06:35:05;4;3;
64138;PMS5003;50435;43.700;-79.318;2023-12-14T06:37:33;4;4;
64138;PMS5003;50435;43.700;-79.318;2023-12-14T06:40:00;2;2;
64138;PMS5003;50435;43.700;-79.318;2023-12-14T06:42:27;2;2;
64138;PMS5003;50435;43.700;-79.318;2023-12-14T06:44:55;7;4;
64138;PMS5003;50435;43.700;-79.318;2023-12-14T06:47:22;8;6;
64138;PMS5003;50435;43.700;-79.318;2023-12-14T06:49:49;2;2;
64138;PMS5003;50435;43.700;-79.318;2023-12-14T06:52:16;2;2;
64138;PMS5003;50435;43.700;-79.318;2023-12-14T06:54:44;2;2;
64138;PMS5003;50435;43.700;-79.318;2023-12-14T06:57:11;8;6;
64138;PMS5003;50435;43.700;-79.318;2023-12-14T06:59:39;2;1;
64138;PMS5003;50435;43.700;-79.318;2023-12-14T07:02:06;3;3;
64138;PMS5003;50435;43.700;-79.318;2023-12-14T07:04:33;4;3;
64138;PMS5003;50435;43.700;-79.318;2023-12-14T07:07:01;3;3;
64138;PMS5003;50435;43.700;-79.318;2023-12-14T07:09:28;2;2;
64138;PMS5003;50435;43.700;-79.318;2023-12-14T07:11:55;2;2;
64138;PMS5003;50435;43.700;-79.318;2023-12-14T07:14:23;3;3;
64138;PMS5003;50435;43.700;-79.318;2023-12-14T07:16:50;2;2;
64138;PMS5003;50435;43.700;-79.318;2023-12-14T07:19:17;3;3;
64138;PMS5003;50435;43.700;-79.318;2023-12-14T07:21:45;4;4;
64138;PMS5003;50435;43.700;-79.318;2023-12-14T07:24:12;4;4;
64138;PMS5003;50435;43.700;-79.318;2023-12-14T07:26:40;2;2;
64138;PMS5003;50435;43.700;-79.318;2023-12-14T07:29:07;4;3;
64138;PMS5003;50435;43.700;-79.318;2023-12-14T07:31:34;2;2;
64138;PMS5003;50435;43.700;-79.318;2023-12-14T07:34:02;2;2;
64138;PMS5003;50435;43.700;-79.318;2023-12-14T07:36:29;7;3;
64138;PMS5003;50435;43.700;-79.318;2023-12-14T07:38:57;6;4;
64138;PMS5003;50435;43.700;-79.318;2023-12-14T07:41:24;2;2;
64138;PMS5003;50435;43.700;-79.318;2023-12-14T07:43:52;6;4;
64138;PMS5003;50435;43.700;-79.318;2023-12-14T07:46:19;3;3;
64138;PMS5003;50435;43.700;-79.318;2023-12-14T07:48:46;2;2;
64138;PMS5003;50435;43.700;-79.318;2023-12-14T07:51:13;4;4;
64138;PMS5003;50435;43.700;-79.318;2023-12-14T07:53:41;6;6;
64138;PMS5003;50435;43.700;-79.318;2023-12-14T07:56:08;6;3;
64138;PMS5003;50435;43.700;-79.318;2023-12-14T07:58:36;7;3;
64138;PMS5003;50435;43.700;-79.318;2023-12-14T08:01:03;2;2;
64138;PMS5003;50435;43.700;-79.318;2023-12-14T08:03:31;2;2;
64138;PMS5003;50435;43.700;-79.318;2023-12-14T08:05:58;6;4;
64138;PMS5003;50435;43.700;-79.318;2023-12-14T08:08:25;3;3;
64138;PMS5003;50435;43.700;-79.318;2023-12-14T08:10:52;6;4;
64138;PMS5003;50435;43.700;-79.318;2023-12-14T08:13:20;6;3;
64138;PMS5003;50435;43.700;-79.318;2023-12-14T08:15:47;6;3;
64138;PMS5003;50435;43.700;-79.318;2023-12-14T08:18:15;3;3;
64138;PMS5003;50435;43.700;-79.318;2023-12-14T08:20:42;6;6;
64138;PMS5003;50435;43.700;-79.318;2023-12-14T08:23:10;4;4;
64138;PMS5003;50435;43.700;-79.318;2023-12-14T08:25:37;4;3;
64138;PMS5003;50435;43.700;-79.318;2023-12-14T08:28:04;3;3;
64138;PMS5003;50435;43.700;-79.318;2023-12-14T08:30:31;2;2;
64138;PMS5003;50435;43.700;-79.318;2023-12-14T08:32:59;4;4;
64138;PMS5003;50435;43.700;-79.318;2023-12-14T08:35:26;3;3;
64138;PMS5003;50435;43.700;-79.318;2023-12-14T08:37:54;4;4;
64138;PMS5003;50435;43.700;-79.318;2023-12-14T08:40:21;6;6;
64138;PMS5003;50435;43.700;-79.318;2023-12-14T08:42:48;3;3;
64138;PMS5003;50435;43.700;-79.318;2023-12-14T08:45:16;4;4;
64138;PMS5003;50435;43.700;-79.318;2023-12-14T08:47:43;4;4;
64138;PMS5003;50435;43.700;-79.318;2023-12-14T08:50:10;8;6;
64138;PMS5003;50435;43.700;-79.318;2023-12-14T08:52:38;7;7;
64138;PMS5003;50435;43.700;-79.318;2023-12-14T08:55:05;7;4;
64138;PMS5003;50435;43.700;-79.318;2023-12-14T08:57:34;7;7;
64138;PMS5003;50435;43.700;-79.318;2023-12-14T09:00:02;3;3;
64138;PMS5003;50435;43.700;-79.318;2023-12-14T09:02:30;7;6;
64138;PMS5003;50435;43.700;-79.318;2023-12-14T09:04:57;4;4;
64138;PMS5003;50435;43.700;-79.318;2023-12-14T09:07:24;7;7;
64138;PMS5003;50435;43.700;-79.318;2023-12-14T09:09:52;6;6;
64138;PMS5003;50435;43.700;-79.318;2023-12-14T09:12:20;7;7;
64138;PMS5003;50435;43.700;-79.318;2023-12-14T09:14:47;9;8;
64138;PMS5003;50435;43.700;-79.318;2023-12-14T09:17:15;8;7;
64138;PMS5003;50435;43.700;-79.318;2023-12-14T09:19:42;11;6;
64138;PMS5003;50435;43.700;-79.318;2023-12-14T09:22:10;9;6;
64138;PMS5003;50435;43.700;-79.318;2023-12-14T09:24:37;11;9;
64138;PMS5003;50435;43.700;-79.318;2023-12-14T09:27:04;9;7;
64138;PMS5003;50435;43.700;-79.318;2023-12-14T09:29:32;8;7;
64138;PMS5003;50435;43.700;-79.318;2023-12-14T09:31:59;8;7;
64138;PMS5003;50435;43.700;-79.318;2023-12-14T09:34:27;9;8;
64138;PMS5003;50435;43.700;-79.318;2023-12-14T09:36:54;6;6;
64138;PMS5003;50435;43.700;-79.318;2023-12-14T09:39:22;9;7;
64138;PMS5003;50435;43.700;-79.318;2023-12-14T09:41:50;9;8;
64138;PMS5003;50435;43.700;-79.318;2023-12-14T09:44:17;6;6;
64138;PMS5003;50435;43.700;-79.318;2023-12-14T09:46:45;6;6;
64138;PMS5003;50435;43.700;-79.318;2023-12-14T09:49:13;8;7;
64138;PMS5003;50435;43.700;-79.318;2023-12-14T09:51:40;9;7;
64138;PMS5003;50435;43.700;-79.318;2023-12-14T09:54:08;9;9;
64138;PMS5003;50435;43.700;-79.318;2023-12-14T09:56:36;9;9;
64138;PMS5003;50435;43.700;-79.318;2023-12-14T09:59:12;8;7;
64138;PMS5003;50435;43.700;-79.318;2023-12-14T10:01:39;9;8;
64138;PMS5003;50435;43.700;-79.318;2023-12-14T10:04:08;8;8;
64138;PMS5003;50435;43.700;-79.318;2023-12-14T10:06:36;12;11;
64138;PMS5003;50435;43.700;-79.318;2023-12-14T10:09:04;7;7;
64138;PMS5003;50435;43.700;-79.318;2023-12-14T10:11:33;7;7;
64138;PMS5003;50435;43.700;-79.318;2023-12-14T10:14:00;13;12;
64138;PMS5003;50435;43.700;-79.318;2023-12-14T10:16:28;9;8;
64138;PMS5003;50435;43.700;-79.318;2023-12-14T10:18:56;9;7;
64138;PMS5003;50435;43.700;-79.318;2023-12-14T10:21:24;8;8;
64138;PMS5003;50435;43.700;-79.318;2023-12-14T10:23:52;11;7;
64138;PMS5003;50435;43.700;-79.318;2023-12-14T10:26:22;14;12;
64138;PMS5003;50435;43.700;-79.318;2023-12-14T10:28:50;8;8;
64138;PMS5003;50435;43.700;-79.318;2023-12-14T10:31:18;8;8;
64138;PMS5003;50435;43.700;-79.318;2023-12-14T10:33:46;9;7;
64138;PMS5003;50435;43.700;-79.318;2023-12-14T10:36:13;9;9;
64138;PMS5003;50435;43.700;-79.318;2023-12-14T10:38:44;11;9;
64138;PMS5003;50435;43.700;-79.318;2023-12-14T10:41:14;8;8;
64138;PMS5003;50435;43.700;-79.318;2023-12-14T10:43:43;11;9;
64138;PMS5003;50435;43.700;-79.318;2023-12-14T10:46:13;13;13;
64138;PMS5003;50435;43.700;-79.318;2023-12-14T10:48:41;7;6;
64138;PMS5003;50435;43.700;-79.318;2023-12-14T10:51:11;9;9;
64138;PMS5003;50435;43.700;-79.318;2023-12-14T10:53:39;8;8;
64138;PMS5003;50435;43.700;-79.318;2023-12-14T10:56:08;8;8;
64138;PMS5003;50435;43.700;-79.318;2023-12-14T10:58:45;11;11;
64138;PMS5003;50435;43.700;-79.318;2023-12-14T11:01:15;8;8;
64138;PMS5003;50435;43.700;-79.318;2023-12-14T11:03:43;11;8;
64138;PMS5003;50435;43.700;-79.318;2023-12-14T11:06:43;7;7;
64138;PMS5003;50435;43.700;-79.318;2023-12-14T11:09:12;9;9;
64138;PMS5003;50435;43.700;-79.318;2023-12-14T11:11:40;12;12;
64138;PMS5003;50435;43.700;-79.318;2023-12-14T11:14:10;9;9;
64138;PMS5003;50435;43.700;-79.318;2023-12-14T11:16:38;12;11;
64138;PMS5003;50435;43.700;-79.318;2023-12-14T11:19:26;16;13;
64138;PMS5003;50435;43.700;-79.318;2023-12-14T11:22:09;13;11;
64138;PMS5003;50435;43.700;-79.318;2023-12-14T11:24:37;9;9;
64138;PMS5003;50435;43.700;-79.318;2023-12-14T11:27:08;8;8;
64138;PMS5003;50435;43.700;-79.318;2023-12-14T11:29:37;8;7;
64138;PMS5003;50435;43.700;-79.318;2023-12-14T11:32:05;11;9;
64138;PMS5003;50435;43.700;-79.318;2023-12-14T11:34:32;11;11;
64138;PMS5003;50435;43.700;-79.318;2023-12-14T11:37:00;8;8;
64138;PMS5003;50435;43.700;-79.318;2023-12-14T11:39:29;12;9;
64138;PMS5003;50435;43.700;-79.318;2023-12-14T11:41:59;12;11;
64138;PMS5003;50435;43.700;-79.318;2023-12-14T11:44:26;8;8;
64138;PMS5003;50435;43.700;-79.318;2023-12-14T11:46:54;12;9;
64138;PMS5003;50435;43.700;-79.318;2023-12-14T11:49:23;8;8;
64138;PMS5003;50435;43.700;-79.318;2023-12-14T11:51:51;8;8;
64138;PMS5003;50435;43.700;-79.318;2023-12-14T11:54:19;8;8;
64138;PMS5003;50435;43.700;-79.318;2023-12-14T11:56:47;11;8;
64138;PMS5003;50435;43.700;-79.318;2023-12-14T11:59:14;12;8;
64138;PMS5003;50435;43.700;-79.318;2023-12-14T12:01:53;8;8;
64138;PMS5003;50435;43.700;-79.318;2023-12-14T12:04:22;13;13;
64138;PMS5003;50435;43.700;-79.318;2023-12-14T12:06:49;12;8;
64138;PMS5003;50435;43.700;-79.318;2023-12-14T12:09:33;8;8;
64138;PMS5003;50435;43.700;-79.318;2023-12-14T12:12:02;11;8;
64138;PMS5003;50435;43.700;-79.318;2023-12-14T12:14:32;9;8;
64138;PMS5003;50435;43.700;-79.318;2023-12-14T12:17:00;8;8;
64138;PMS5003;50435;43.700;-79.318;2023-12-14T12:19:28;8;8;
64138;PMS5003;50435;43.700;-79.318;2023-12-14T12:21:55;7;7;
64138;PMS5003;50435;43.700;-79.318;2023-12-14T12:24:23;8;8;
64138;PMS5003;50435;43.700;-79.318;2023-12-14T12:26:50;9;9;
64138;PMS5003;50435;43.700;-79.318;2023-12-14T12:29:18;9;9;
64138;PMS5003;50435;43.700;-79.318;2023-12-14T12:31:45;8;8;
64138;PMS5003;50435;43.700;-79.318;2023-12-14T12:34:12;9;9;
64138;PMS5003;50435;43.700;-79.318;2023-12-14T12:36:40;11;9;
64138;PMS5003;50435;43.700;-79.318;2023-12-14T12:39:07;11;8;
64138;PMS5003;50435;43.700;-79.318;2023-12-14T12:41:35;12;9;
64138;PMS5003;50435;43.700;-79.318;2023-12-14T12:44:02;9;9;
64138;PMS5003;50435;43.700;-79.318;2023-12-14T12:46:30;8;8;
64138;PMS5003;50435;43.700;-79.318;2023-12-14T12:48:58;8;8;
64138;PMS5003;50435;43.700;-79.318;2023-12-14T12:51:25;12;9;
64138;PMS5003;50435;43.700;-79.318;2023-12-14T12:53:53;9;8;
64138;PMS5003;50435;43.700;-79.318;2023-12-14T12:56:21;9;9;
64138;PMS5003;50435;43.700;-79.318;2023-12-14T12:58:48;9;8;
64138;PMS5003;50435;43.700;-79.318;2023-12-14T13:01:16;7;7;
64138;PMS5003;50435;43.700;-79.318;2023-12-14T13:03:43;11;11;
64138;PMS5003;50435;43.700;-79.318;2023-12-14T13:06:10;7;7;
64138;PMS5003;50435;43.700;-79.318;2023-12-14T13:08:38;11;11;
64138;PMS5003;50435;43.700;-79.318;2023-12-14T13:11:05;7;7;
64138;PMS5003;50435;43.700;-79.318;2023-12-14T13:13:33;9;9;
64138;PMS5003;50435;43.700;-79.318;2023-12-14T13:16:00;9;8;
64138;PMS5003;50435;43.700;-79.318;2023-12-14T13:18:27;9;9;
64138;PMS5003;50435;43.700;-79.318;2023-12-14T13:20:55;12;11;
64138;PMS5003;50435;43.700;-79.318;2023-12-14T13:23:22;9;9;
64138;PMS5003;50435;43.700;-79.318;2023-12-14T13:25:50;9;9;
64138;PMS5003;50435;43.700;-79.318;2023-12-14T13:28:17;11;11;
64138;PMS5003;50435;43.700;-79.318;2023-12-14T13:30:44;7;7;
64138;PMS5003;50435;43.700;-79.318;2023-12-14T13:33:12;8;8;
64138;PMS5003;50435;43.700;-79.318;2023-12-14T13:35:39;9;8;
64138;PMS5003;50435;43.700;-79.318;2023-12-14T13:38:07;11;11;
64138;PMS5003;50435;43.700;-79.318;2023-12-14T13:40:34;9;8;
64138;PMS5003;50435;43.700;-79.318;2023-12-14T13:43:01;11;11;
64138;PMS5003;50435;43.700;-79.318;2023-12-14T13:45:29;9;9;
64138;PMS5003;50435;43.700;-79.318;2023-12-14T13:47:56;12;12;
64138;PMS5003;50435;43.700;-79.318;2023-12-14T13:50:23;9;8;
64138;PMS5003;50435;43.700;-79.318;2023-12-14T13:52:51;12;12;
64138;PMS5003;50435;43.700;-79.318;2023-12-14T13:55:18;16;11;
64138;PMS5003;50435;43.700;-79.318;2023-12-14T13:57:46;11;9;
64138;PMS5003;50435;43.700;-79.318;2023-12-14T14:00:13;8;7;
64138;PMS5003;50435;43.700;-79.318;2023-12-14T14:02:42;8;8;
64138;PMS5003;50435;43.700;-79.318;2023-12-14T14:05:09;12;12;
64138;PMS5003;50435;43.700;-79.318;2023-12-14T14:07:37;8;8;
64138;PMS5003;50435;43.700;-79.318;2023-12-14T14:10:05;8;8;
64138;PMS5003;50435;43.700;-79.318;2023-12-14T14:12:32;8;8;
64138;PMS5003;50435;43.700;-79.318;2023-12-14T14:15:00;8;8;
64138;PMS5003;50435;43.700;-79.318;2023-12-14T14:17:27;9;8;
64138;PMS5003;50435;43.700;-79.318;2023-12-14T14:19:54;14;11;
64138;PMS5003;50435;43.700;-79.318;2023-12-14T14:22:22;9;9;
64138;PMS5003;50435;43.700;-79.318;2023-12-14T14:24:49;11;11;
64138;PMS5003;50435;43.700;-79.318;2023-12-14T14:27:16;13;9;
64138;PMS5003;50435;43.700;-79.318;2023-12-14T14:29:44;14;14;
64138;PMS5003;50435;43.700;-79.318;2023-12-14T14:32:11;12;11;
64138;PMS5003;50435;43.700;-79.318;2023-12-14T14:34:39;12;10;
64138;PMS5003;50435;43.700;-79.318;2023-12-14T14:37:06;11;11;
64138;PMS5003;50435;43.700;-79.318;2023-12-14T14:39:33;12;11;
64138;PMS5003;50435;43.700;-79.318;2023-12-14T14:42:01;11;11;
64138;PMS5003;50435;43.700;-79.318;2023-12-14T14:44:28;11;11;
64138;PMS5003;50435;43.700;-79.318;2023-12-14T14:46:55;12;10;
64138;PMS5003;50435;43.700;-79.318;2023-12-14T14:49:22;9;9;
64138;PMS5003;50435;43.700;-79.318;2023-12-14T14:51:49;15;14;
64138;PMS5003;50435;43.700;-79.318;2023-12-14T14:54:17;10;10;
64138;PMS5003;50435;43.700;-79.318;2023-12-14T14:56:44;14;14;
64138;PMS5003;50435;43.700;-79.318;2023-12-14T14:59:11;14;14;
64138;PMS5003;50435;43.700;-79.318;2023-12-14T15:01:39;15;14;
64138;PMS5003;50435;43.700;-79.318;2023-12-14T15:04:06;14;14;
64138;PMS5003;50435;43.700;-79.318;2023-12-14T15:06:33;13;13;
64138;PMS5003;50435;43.700;-79.318;2023-12-14T15:09:00;15;12;
64138;PMS5003;50435;43.700;-79.318;2023-12-14T15:11:28;18;16;
64138;PMS5003;50435;43.700;-79.318;2023-12-14T15:13:55;18;15;
64138;PMS5003;50435;43.700;-79.318;2023-12-14T15:16:22;18;12;
64138;PMS5003;50435;43.700;-79.318;2023-12-14T15:18:50;13;13;
64138;PMS5003;50435;43.700;-79.318;2023-12-14T15:21:17;13;10;
64138;PMS5003;50435;43.700;-79.318;2023-12-14T15:23:44;14;12;
64138;PMS5003;50435;43.700;-79.318;2023-12-14T15:26:12;16;14;
64138;PMS5003;50435;43.700;-79.318;2023-12-14T15:28:40;17;17;
64138;PMS5003;50435;43.700;-79.318;2023-12-14T15:31:07;10;10;
64138;PMS5003;50435;43.700;-79.318;2023-12-14T15:33:35;16;11;
64138;PMS5003;50435;43.700;-79.318;2023-12-14T15:36:02;15;15;
64138;PMS5003;50435;43.700;-79.318;2023-12-14T15:38:30;14;11;
64138;PMS5003;50435;43.700;-79.318;2023-12-14T15:40:57;18;14;
64138;PMS5003;50435;43.700;-79.318;2023-12-14T15:43:25;14;13;
64138;PMS5003;50435;43.700;-79.318;2023-12-14T15:45:52;15;14;
64138;PMS5003;50435;43.700;-79.318;2023-12-14T15:48:20;14;14;
64138;PMS5003;50435;43.700;-79.318;2023-12-14T15:50:47;14;14;
64138;PMS5003;50435;43.700;-79.318;2023-12-14T15:53:14;13;13;
64138;PMS5003;50435;43.700;-79.318;2023-12-14T15:55:41;16;13;
64138;PMS5003;50435;43.700;-79.318;2023-12-14T15:58:09;14;11;
64138;PMS5003;50435;43.700;-79.318;2023-12-14T16:00:37;14;14;
64138;PMS5003;50435;43.700;-79.318;2023-12-14T16:03:04;12;12;
64138;PMS5003;50435;43.700;-79.318;2023-12-14T16:05:31;14;14;
64138;PMS5003;50435;43.700;-79.318;2023-12-14T16:07:59;12;11;
64138;PMS5003;50435;43.700;-79.318;2023-12-14T16:10:26;15;14;
64138;PMS5003;50435;43.700;-79.318;2023-12-14T16:12:53;16;15;
64138;PMS5003;50435;43.700;-79.318;2023-12-14T16:15:21;16;15;